createdAt,value
2023-08-24T00:00:39.823Z,153305.22
2023-08-24T00:05:41.909Z,153280.56
2023-08-24T00:10:45.275Z,153349.38
2023-08-24T00:15:47.197Z,153368.81
2023-08-24T00:20:49.959Z,153290.94
2023-08-24T00:25:51.720Z,153281.84
2023-08-24T00:30:53.431Z,153292.25
2023-08-24T00:35:55.142Z,153231.19
2023-08-24T00:40:57.360Z,153271.47
2023-08-24T00:46:01.990Z,153253.25
2023-08-24T00:51:04.149Z,153198.72
2023-08-24T00:56:07.673Z,153164.97
2023-08-24T01:01:09.580Z,153244.16
2023-08-24T01:06:11.330Z,153171.50
2023-08-24T01:11:16.544Z,153122.16
2023-08-24T01:16:22.172Z,153087.06
2023-08-24T01:21:24.851Z,153133.81
2023-08-24T01:26:27.841Z,153123.44
2023-08-24T01:31:29.581Z,153087.06
2023-08-24T01:36:31.771Z,153079.31
2023-08-24T01:41:44.240Z,153116.94
2023-08-24T01:46:48.010Z,153116.94
2023-08-24T01:51:50.639Z,153067.63
2023-08-24T01:56:52.368Z,153026.09
2023-08-24T02:01:54.127Z,153114.34
2023-08-24T02:06:55.868Z,153071.50
2023-08-24T02:11:57.536Z,153001.47
2023-08-24T02:16:59.329Z,152969.03
2023-08-24T02:22:01.068Z,153019.59
2023-08-24T02:27:02.926Z,153014.44
2023-08-24T02:32:05.029Z,153022.22
2023-08-24T02:37:06.970Z,152987.19
2023-08-24T02:42:08.678Z,152975.47
2023-08-24T02:47:10.343Z,153000.16
2023-08-24T02:52:12.016Z,152927.50
2023-08-24T02:57:13.731Z,152944.38
2023-08-24T03:02:15.815Z,152944.38
2023-08-24T03:07:17.537Z,152949.56
2023-08-24T03:12:19.298Z,153014.44
2023-08-24T03:17:22.122Z,152988.50
2023-08-24T03:22:23.937Z,152954.75
2023-08-24T03:27:25.642Z,152885.97
2023-08-24T03:32:27.397Z,152961.22
2023-08-24T03:37:29.532Z,152967.72
2023-08-24T03:42:31.525Z,152919.75
2023-08-24T03:47:33.717Z,152857.44
2023-08-24T03:52:35.435Z,152813.34
2023-08-24T03:57:39.112Z,152796.50
2023-08-24T04:02:43.879Z,152836.66
2023-08-24T04:07:52.444Z,152853.56
2023-08-24T04:12:54.562Z,152857.44
2023-08-24T04:17:56.432Z,152813.34
2023-08-24T04:22:58.195Z,152830.22
2023-08-24T04:27:59.862Z,152844.47
2023-08-24T04:33:01.546Z,152813.34
2023-08-24T04:38:03.486Z,152806.88
2023-08-24T04:43:05.128Z,152879.47
2023-08-24T04:48:07.055Z,152874.31
2023-08-24T04:53:08.767Z,152845.75
2023-08-24T04:58:11.987Z,152847.03
2023-08-24T05:03:14.725Z,152856.13
2023-08-24T05:08:16.483Z,152887.28
2023-08-24T05:13:18.385Z,152926.22
2023-08-24T05:18:20.096Z,152937.88
2023-08-24T05:23:21.784Z,152988.50
2023-08-24T05:28:23.495Z,153052.03
2023-08-24T05:33:25.828Z,153076.69
2023-08-24T05:38:27.717Z,153126.03
2023-08-24T05:43:29.424Z,153150.66
2023-08-24T05:48:31.102Z,153152.00
2023-08-24T05:53:32.789Z,153220.81
2023-08-24T05:58:35.050Z,153268.88
2023-08-24T06:03:36.827Z,153346.72
2023-08-24T06:08:38.698Z,153520.84
2023-08-24T06:13:40.378Z,153568.91
2023-08-24T06:18:42.102Z,153710.63
2023-08-24T06:23:45.347Z,153834.13
2023-08-24T06:28:47.119Z,153917.38
2023-08-24T06:33:50.019Z,153994.13
2023-08-24T06:38:52.236Z,154061.78
2023-08-24T06:43:55.024Z,154072.22
2023-08-24T06:48:56.745Z,154053.94
2023-08-24T06:53:58.466Z,154117.75
2023-08-24T06:59:00.242Z,154074.81
2023-08-24T07:04:01.978Z,154197.13
2023-08-24T07:09:07.579Z,154211.44
2023-08-24T07:14:09.286Z,154212.75
2023-08-24T07:19:11.325Z,154290.88
2023-08-24T07:24:13.060Z,154298.72
2023-08-24T07:29:14.741Z,154358.59
2023-08-24T07:34:16.969Z,154410.69
2023-08-24T07:39:18.635Z,154374.19
2023-08-24T07:44:20.371Z,154388.53
2023-08-24T07:49:22.113Z,154427.59
2023-08-24T07:54:23.814Z,154488.88
2023-08-24T07:59:25.514Z,154508.38
2023-08-24T08:04:27.384Z,154522.72
2023-08-24T08:09:29.123Z,154624.34
2023-08-24T08:14:31.079Z,154741.63
2023-08-24T08:19:32.803Z,154710.34
2023-08-24T08:24:34.646Z,154780.69
2023-08-24T08:29:36.403Z,154843.34
2023-08-24T08:34:38.094Z,154907.22
2023-08-24T08:39:39.887Z,155003.69
2023-08-24T08:44:48.240Z,154967.19
2023-08-24T08:49:53.559Z,154991.94
2023-08-24T08:54:55.376Z,155074.16
2023-08-24T08:59:59.895Z,155101.56
2023-08-24T09:05:01.877Z,155173.28
2023-08-24T09:10:08.316Z,155335.09
2023-08-24T09:15:10.740Z,155417.41
2023-08-24T09:20:12.909Z,155431.75
2023-08-24T09:25:14.690Z,155452.66
2023-08-24T09:30:19.882Z,155511.38
2023-08-24T09:35:22.150Z,155594.97
2023-08-24T09:40:27.390Z,155712.59
2023-08-24T09:45:28.918Z,155942.56
2023-08-24T09:50:30.858Z,156163.47
2023-08-24T09:55:37.722Z,156115.13
2023-08-24T10:00:39.542Z,156150.41
2023-08-24T10:05:51.968Z,156187.09
2023-08-24T10:10:59.778Z,156081.13
2023-08-24T10:16:02.135Z,156153.06
2023-08-24T10:21:04.750Z,156036.69
2023-08-24T10:26:09.111Z,156098.16
2023-08-24T10:31:11.380Z,156160.88
2023-08-24T10:36:15.427Z,156126.88
2023-08-24T10:41:17.144Z,156102.06
2023-08-24T10:46:19.207Z,156083.75
2023-08-24T10:51:27.853Z,156171.38
2023-08-24T10:56:37.489Z,156310.00
2023-08-24T11:01:43.486Z,156122.97
2023-08-24T11:07:00.197Z,156082.44
2023-08-24T11:12:04.666Z,156030.19
2023-08-24T11:17:22.730Z,156090.28
2023-08-24T11:22:26.404Z,156130.84
2023-08-24T11:27:28.652Z,156163.47
2023-08-24T11:32:30.544Z,156192.31
2023-08-24T11:37:32.519Z,156300.88
2023-08-24T11:42:37.676Z,156332.28
2023-08-24T11:47:39.767Z,156457.84
2023-08-24T11:52:45.302Z,156325.75
2023-08-24T11:57:47.053Z,156159.56
2023-08-24T12:02:50.019Z,156154.38
2023-08-24T12:07:55.974Z,156119.06
2023-08-24T12:13:09.294Z,156049.75
2023-08-24T12:18:13.184Z,155997.44
2023-08-24T12:23:15.148Z,156026.22
2023-08-24T12:28:17.452Z,156139.94
2023-08-24T12:33:27.154Z,156147.81
2023-08-24T12:38:29.066Z,156134.75
2023-08-24T12:43:30.828Z,156056.31
2023-08-24T12:48:32.650Z,156005.31
2023-08-24T12:53:36.645Z,156045.84
2023-08-24T12:58:39.299Z,156112.53
2023-08-24T13:03:41.020Z,156311.28
2023-08-24T13:08:42.711Z,156380.69
2023-08-24T13:13:46.730Z,156384.59
2023-08-24T13:18:48.955Z,156396.38
2023-08-24T13:23:50.745Z,156375.44
2023-08-24T13:28:53.088Z,156334.94
2023-08-24T13:33:54.796Z,156290.41
2023-08-24T13:38:56.544Z,156213.25
2023-08-24T13:43:58.511Z,156188.41
2023-08-24T13:49:00.279Z,156228.91
2023-08-24T13:54:02.121Z,156187.09
2023-08-24T13:59:06.921Z,156121.69
2023-08-24T14:04:09.157Z,156151.72
2023-08-24T14:09:11.034Z,156109.91
2023-08-24T14:14:12.749Z,156062.88
2023-08-24T14:19:14.504Z,156074.63
2023-08-24T14:24:19.702Z,156049.75
2023-08-24T14:29:21.808Z,156036.69
2023-08-24T14:34:23.509Z,156073.31
2023-08-24T14:39:25.320Z,156073.31
2023-08-24T14:44:27.026Z,156064.16
2023-08-24T14:49:29.518Z,156077.22
2023-08-24T14:54:31.198Z,156150.41
2023-08-24T14:59:33.288Z,156162.19
2023-08-24T15:04:34.956Z,156153.06
2023-08-24T15:09:36.637Z,156102.06
2023-08-24T15:14:38.590Z,156151.72
2023-08-24T15:19:40.333Z,156171.38
2023-08-24T15:24:43.347Z,156115.13
2023-08-24T15:29:45.043Z,156109.91
2023-08-24T15:34:47.042Z,156162.19
2023-08-24T15:39:48.797Z,156113.81
2023-08-24T15:44:50.612Z,156132.16
2023-08-24T15:49:52.354Z,156137.34
2023-08-24T15:54:54.245Z,156060.22
2023-08-24T15:59:56.068Z,156031.47
2023-08-24T16:04:57.864Z,156047.16
2023-08-24T16:09:59.760Z,156060.22
2023-08-24T16:15:02.071Z,156062.88
2023-08-24T16:20:08.377Z,156058.91
2023-08-24T16:25:10.630Z,156013.13
2023-08-24T16:30:12.647Z,155949.09
2023-08-24T16:35:15.179Z,155972.63
2023-08-24T16:40:17.316Z,155902.03
2023-08-24T16:45:19.030Z,155832.75
2023-08-24T16:50:20.838Z,155798.78
2023-08-24T16:55:22.598Z,155806.63
2023-08-24T17:00:24.902Z,155783.13
2023-08-24T17:05:26.660Z,155822.28
2023-08-24T17:10:28.383Z,155787.00
2023-08-24T17:15:30.320Z,155779.22
2023-08-24T17:20:36.485Z,155758.31
2023-08-24T17:25:46.162Z,155720.38
2023-08-24T17:30:48.756Z,155643.31
2023-08-24T17:35:51.355Z,155594.97
2023-08-24T17:41:07.666Z,155564.97
2023-08-24T17:46:09.531Z,155498.34
2023-08-24T17:51:11.408Z,155482.63
2023-08-24T17:56:13.155Z,155447.41
2023-08-24T18:01:15.050Z,155376.94
2023-08-24T18:06:16.810Z,155378.22
2023-08-24T18:11:18.910Z,155323.34
2023-08-24T18:16:20.701Z,155232.03
2023-08-24T18:21:22.471Z,155152.41
2023-08-24T18:26:24.157Z,155050.66
2023-08-24T18:31:27.037Z,155049.38
2023-08-24T18:36:28.818Z,155004.97
2023-08-24T18:41:30.598Z,154955.44
2023-08-24T18:46:32.394Z,154865.50
2023-08-24T18:51:34.117Z,154856.38
2023-08-24T18:56:35.898Z,154888.97
2023-08-24T19:01:39.400Z,154853.78
2023-08-24T19:06:47.142Z,154795.06
2023-08-24T19:11:49.568Z,154768.97
2023-08-24T19:16:51.586Z,154712.94
2023-08-24T19:21:53.285Z,154706.44
2023-08-24T19:26:55.031Z,154692.13
2023-08-24T19:31:56.939Z,154692.13
2023-08-24T19:36:58.717Z,154629.53
2023-08-24T19:42:00.605Z,154587.81
2023-08-24T19:47:02.343Z,154567.00
2023-08-24T19:52:04.286Z,154637.34
2023-08-24T19:57:09.389Z,154594.34
2023-08-24T20:02:11.176Z,154580.03
2023-08-24T20:07:12.895Z,154546.16
2023-08-24T20:12:14.568Z,154546.16
2023-08-24T20:17:19.666Z,154529.22
2023-08-24T20:22:21.390Z,154492.75
2023-08-24T20:27:24.040Z,154469.31
2023-08-24T20:32:25.778Z,154434.13
2023-08-24T20:37:27.513Z,154428.88
2023-08-24T20:42:29.773Z,154461.44
2023-08-24T20:47:31.567Z,154454.97
2023-08-24T20:52:33.466Z,154415.88
2023-08-24T20:57:35.436Z,154398.97
2023-08-24T21:02:37.361Z,154346.88
2023-08-24T21:07:39.151Z,154352.09
2023-08-24T21:12:40.962Z,154331.25
2023-08-24T21:17:42.779Z,154329.97
2023-08-24T21:22:44.559Z,154301.31
2023-08-24T21:27:46.825Z,154329.97
2023-08-24T21:32:48.655Z,154340.34
2023-08-24T21:37:50.467Z,154379.41
2023-08-24T21:42:52.238Z,154337.75
2023-08-24T21:47:54.200Z,154353.41
2023-08-24T21:52:56.136Z,154346.88
2023-08-24T21:57:58.930Z,154337.75
2023-08-24T22:03:01.080Z,154270.06
2023-08-24T22:08:06.584Z,154245.28
2023-08-24T22:13:08.277Z,154241.41
2023-08-24T22:18:10.049Z,154249.16
2023-08-24T22:23:11.980Z,154339.03
2023-08-24T22:28:14.222Z,154333.84
2023-08-24T22:33:15.950Z,154324.72
2023-08-24T22:38:17.675Z,154293.47
2023-08-24T22:43:19.417Z,154272.69
2023-08-24T22:48:21.105Z,154287.00
2023-08-24T22:53:22.839Z,154315.59
2023-08-24T22:58:24.695Z,154318.25
2023-08-24T23:03:26.458Z,154354.69
2023-08-24T23:08:28.264Z,154367.72
2023-08-24T23:13:30.080Z,154367.72
2023-08-24T23:18:32.883Z,154421.09
2023-08-24T23:23:34.621Z,154350.75
2023-08-24T23:28:36.344Z,154348.16
2023-08-24T23:33:38.000Z,154346.88
2023-08-24T23:38:39.825Z,154318.25
2023-08-24T23:43:41.548Z,154300.00
2023-08-24T23:48:43.234Z,154316.91
2023-08-24T23:53:44.994Z,154313.03
2023-08-24T23:58:46.742Z,154335.16
